Time;durP1;ratioP1;P1;durP2;ratioP2;P2;SDS_P1;SDS_P2;PMS_P1;PMS_P2;Temp;Humidity;BMP_temperature;BMP_pressure;BME280_temperature;BME280_humidity;BME280_pressure;Samples;Min_cycle;Max_cycle;Signal;HPM_P1;HPM_P2
2023/02/27 00:01:40;;;;;;;5.53;2.70;;;;;;;-2.00;100.00;101885.75;5143454;28;20042;-72
2023/02/27 00:04:11;;;;;;;6.53;2.88;;;;;;;-1.99;100.00;101885.78;5146013;28;20114;-71
2023/02/27 00:06:41;;;;;;;11.43;2.72;;;;;;;-1.98;100.00;101882.38;5150252;28;20057;-72
2023/02/27 00:09:11;;;;;;;5.60;2.30;;;;;;;-1.98;100.00;101884.94;5147228;28;20038;-71
2023/02/27 00:11:42;;;;;;;5.55;2.10;;;;;;;-2.00;100.00;101884.03;5148812;28;20025;-72
2023/02/27 00:14:12;;;;;;;5.65;1.70;;;;;;;-2.09;100.00;101881.16;5149717;28;20519;-72
2023/02/27 00:16:43;;;;;;;2.35;1.25;;;;;;;-2.06;100.00;101881.25;5148489;28;20098;-72
2023/02/27 00:19:13;;;;;;;3.78;1.70;;;;;;;-2.11;100.00;101885.34;5152542;28;20033;-72
2023/02/27 00:21:43;;;;;;;2.33;1.10;;;;;;;-2.21;100.00;101888.38;5149118;28;20043;-71
2023/02/27 00:24:13;;;;;;;2.88;1.10;;;;;;;-2.24;100.00;101895.97;5148173;28;20042;-72
2023/02/27 00:26:44;;;;;;;4.03;1.30;;;;;;;-2.26;100.00;101897.59;5147728;28;20125;-72
2023/02/27 00:29:14;;;;;;;3.38;1.10;;;;;;;-2.23;100.00;101900.25;5145303;28;20106;-72
2023/02/27 00:31:44;;;;;;;3.33;1.23;;;;;;;-2.29;100.00;101897.50;5152796;28;20041;-72
2023/02/27 00:34:15;;;;;;;2.65;1.25;;;;;;;-2.22;100.00;101896.88;5143837;28;20464;-72
2023/02/27 00:36:45;;;;;;;2.38;1.33;;;;;;;-2.10;100.00;101887.09;5141908;28;20396;-72
2023/02/27 00:39:15;;;;;;;4.68;1.38;;;;;;;-2.03;100.00;101898.44;5151030;28;20030;-72
2023/02/27 00:41:46;;;;;;;3.97;1.70;;;;;;;-1.99;100.00;101901.13;5141071;28;20035;-72
2023/02/27 00:44:16;;;;;;;4.13;1.50;;;;;;;-2.11;100.00;101903.28;5149349;28;20027;-72
2023/02/27 00:46:46;;;;;;;5.03;1.60;;;;;;;-2.10;100.00;101902.47;5148282;28;20031;-71
2023/02/27 00:49:16;;;;;;;5.22;1.58;;;;;;;-2.01;100.00;101892.53;5142747;28;20042;-71
2023/02/27 00:51:47;;;;;;;3.58;1.55;;;;;;;-2.02;100.00;101897.63;5152085;28;20046;-72
2023/02/27 00:54:17;;;;;;;3.17;1.45;;;;;;;-2.04;100.00;101896.66;5148997;28;20018;-72
2023/02/27 00:56:48;;;;;;;2.88;1.63;;;;;;;-2.25;100.00;101891.66;5134510;28;20022;-71
2023/02/27 00:59:18;;;;;;;5.20;1.70;;;;;;;-2.25;100.00;101894.22;5149251;28;20058;-72
2023/02/27 01:01:48;;;;;;;5.90;1.88;;;;;;;-2.17;100.00;101892.78;5151078;28;20030;-71
2023/02/27 01:04:19;;;;;;;4.03;1.33;;;;;;;-2.12;100.00;101898.09;5149114;28;20042;-72
2023/02/27 01:06:49;;;;;;;4.47;1.60;;;;;;;-2.25;100.00;101901.00;5148436;28;20037;-71
2023/02/27 01:09:19;;;;;;;3.45;1.58;;;;;;;-2.24;100.00;101895.06;5147483;28;20483;-72
2023/02/27 01:11:50;;;;;;;2.88;1.23;;;;;;;-1.96;100.00;101885.03;5150055;28;20026;-72
2023/02/27 01:14:21;;;;;;;3.83;1.55;;;;;;;-1.99;100.00;101888.31;5131901;28;20031;-71
2023/02/27 01:16:51;;;;;;;3.95;1.55;;;;;;;-1.95;100.00;101891.88;5140148;28;20030;-71
2023/02/27 01:19:21;;;;;;;4.20;1.05;;;;;;;-2.30;99.88;101888.03;5147946;28;20637;-71
2023/02/27 01:21:52;;;;;;;5.13;1.50;;;;;;;-2.41;100.00;101894.47;5149445;28;20555;-72
2023/02/27 01:24:22;;;;;;;2.45;1.17;;;;;;;-2.51;100.00;101891.53;5148708;28;20031;-72
2023/02/27 01:26:52;;;;;;;4.28;1.50;;;;;;;-2.56;100.00;101888.78;5148024;28;20481;-72
2023/02/27 01:29:23;;;;;;;3.83;1.30;;;;;;;-2.55;100.00;101895.63;5150641;28;20030;-72
2023/02/27 01:31:53;;;;;;;4.07;1.60;;;;;;;-2.55;100.00;101885.41;5148329;28;20030;-71
2023/02/27 01:34:23;;;;;;;4.03;2.00;;;;;;;-2.54;100.00;101882.03;5150617;28;20030;-72
2023/02/27 01:36:54;;;;;;;8.55;2.33;;;;;;;-2.61;100.00;101884.28;5149879;28;20224;-72
2023/02/27 01:39:25;;;;;;;13.57;3.63;;;;;;;-2.67;100.00;101882.38;5150731;28;20027;-71
2023/02/27 01:41:55;;;;;;;11.07;3.20;;;;;;;-2.71;100.00;101883.06;5132214;28;20562;-72
2023/02/27 01:44:27;;;;;;;16.83;4.45;;;;;;;-2.67;100.00;101890.03;5146570;28;20165;-71
2023/02/27 01:46:58;;;;;;;22.23;4.13;;;;;;;-2.71;100.00;101882.22;5143895;28;20031;-72
2023/02/27 01:49:32;;;;;;;18.70;4.35;;;;;;;-2.57;100.00;101883.59;5148239;28;20081;-72
2023/02/27 01:52:09;;;;;;;9.23;3.15;;;;;;;-2.46;100.00;101884.88;5139935;28;20540;-71
2023/02/27 01:54:41;;;;;;;12.63;3.33;;;;;;;-2.42;100.00;101879.94;5138131;28;20531;-71
2023/02/27 01:57:11;;;;;;;12.00;3.55;;;;;;;-2.35;100.00;101887.00;5140643;28;20263;-72
2023/02/27 01:59:42;;;;;;;4.40;1.85;;;;;;;-2.24;100.00;101878.03;5138499;28;20507;-72
2023/02/27 02:02:26;;;;;;;5.55;1.95;;;;;;;-2.26;100.00;101892.47;5138743;28;20455;-72
2023/02/27 02:04:57;;;;;;;5.18;1.65;;;;;;;-2.43;100.00;101885.88;5135417;28;20027;-71
2023/02/27 02:07:28;;;;;;;3.95;1.70;;;;;;;-2.67;100.00;101884.94;5142797;28;20377;-73
2023/02/27 02:10:00;;;;;;;3.63;1.40;;;;;;;-2.72;100.00;101889.00;5148013;28;20027;-73
2023/02/27 02:12:34;;;;;;;3.78;1.92;;;;;;;-2.82;100.00;101889.44;5148024;28;20034;-72
2023/02/27 02:15:05;;;;;;;3.30;1.50;;;;;;;-2.79;100.00;101893.81;5144244;28;20034;-72
2023/02/27 02:18:06;;;;;;;4.03;1.63;;;;;;;-2.78;100.00;101888.78;5144688;28;20034;-72
2023/02/27 02:21:16;;;;;;;4.47;1.65;;;;;;;-2.88;100.00;101889.22;5142869;28;20045;-72
2023/02/27 02:23:55;;;;;;;5.22;1.73;;;;;;;-2.89;100.00;101890.03;5139172;28;20637;-72
2023/02/27 02:26:38;;;;;;;5.25;1.90;;;;;;;-2.82;100.00;101886.91;5144621;28;20034;-72
2023/02/27 02:29:27;;;;;;;4.80;1.75;;;;;;;-2.91;100.00;101890.78;5150356;28;20105;-72
2023/02/27 02:32:23;;;;;;;6.07;2.60;;;;;;;-2.83;100.00;101891.97;5146480;28;20027;-72
2023/02/27 02:34:59;;;;;;;3.78;1.30;;;;;;;-2.70;100.00;101894.19;5145414;28;20045;-72
2023/02/27 02:37:53;;;;;;;2.72;1.50;;;;;;;-2.74;100.00;101887.19;5148974;28;20048;-72
2023/02/27 02:40:45;;;;;;;4.25;1.60;;;;;;;-2.92;100.00;101895.03;5148584;28;20027;-72
2023/02/27 02:43:30;;;;;;;5.45;2.05;;;;;;;-3.10;100.00;101889.22;5145244;28;20528;-71
2023/02/27 02:46:12;;;;;;;5.55;1.58;;;;;;;-3.16;100.00;101894.06;5144929;28;20050;-72
2023/02/27 02:48:52;;;;;;;4.25;1.40;;;;;;;-3.18;100.00;101887.16;5149222;28;20037;-72
2023/02/27 02:51:40;;;;;;;4.00;1.63;;;;;;;-3.32;100.00;101886.63;5145935;28;20023;-71
2023/02/27 02:54:16;;;;;;;2.80;1.40;;;;;;;-3.33;100.00;101892.50;5146990;28;20023;-72
2023/02/27 02:56:53;;;;;;;3.53;1.80;;;;;;;-3.26;100.00;101889.41;5146668;28;20038;-71
2023/02/27 02:59:36;;;;;;;4.80;1.70;;;;;;;-3.32;100.00;101884.06;5140525;28;20031;-71
2023/02/27 03:02:12;;;;;;;5.93;1.77;;;;;;;-3.06;100.00;101893.63;5150714;28;20027;-71
2023/02/27 03:05:03;;;;;;;4.78;2.10;;;;;;;-2.94;100.00;101886.44;5148483;28;20034;-72
2023/02/27 03:07:46;;;;;;;4.90;1.90;;;;;;;-2.93;100.00;101879.63;5148028;28;20364;-71
2023/02/27 03:10:28;;;;;;;4.43;1.60;;;;;;;-2.80;100.00;101882.75;5150793;28;20059;-72
2023/02/27 03:13:05;;;;;;;4.65;1.70;;;;;;;-2.84;100.00;101885.13;5148252;28;20073;-72
2023/02/27 03:15:50;;;;;;;4.63;1.88;;;;;;;-2.80;100.00;101884.41;5144479;28;20030;-72
2023/02/27 03:18:31;;;;;;;3.72;1.90;;;;;;;-2.87;100.00;101885.00;5148822;28;20027;-72
2023/02/27 03:21:10;;;;;;;3.35;1.83;;;;;;;-3.08;100.00;101890.13;5131012;28;20142;-71
2023/02/27 03:23:46;;;;;;;4.45;2.10;;;;;;;-3.09;100.00;101890.94;5149820;28;20053;-71
2023/02/27 03:26:22;;;;;;;3.78;1.88;;;;;;;-3.03;100.00;101893.75;5143227;28;20038;-71
2023/02/27 03:29:11;;;;;;;5.57;2.28;;;;;;;-2.77;100.00;101890.53;5149693;28;20038;-72
2023/02/27 03:31:52;;;;;;;3.85;2.05;;;;;;;-2.79;100.00;101898.94;5150059;28;20019;-73
2023/02/27 03:34:44;;;;;;;5.82;2.30;;;;;;;-2.80;100.00;101894.66;5144368;28;20030;-72
2023/02/27 03:37:47;;;;;;;6.15;2.15;;;;;;;-2.82;100.00;101894.56;5148298;28;20034;-71
2023/02/27 03:40:39;;;;;;;5.13;2.35;;;;;;;-2.75;100.00;101901.69;5143866;28;20023;-72
2023/02/27 03:43:18;;;;;;;4.03;2.00;;;;;;;-2.61;100.00;101899.66;5131055;28;20400;-71
2023/02/27 03:46:01;;;;;;;8.32;2.28;;;;;;;-2.47;100.00;101901.91;5142592;28;20620;-71
2023/02/27 03:48:32;;;;;;;6.10;1.90;;;;;;;-2.63;99.80;101897.06;5146629;28;20485;-72
2023/02/27 03:51:03;;;;;;;5.15;2.20;;;;;;;-2.80;99.94;101907.44;5148829;28;20065;-72
2023/02/27 03:53:43;;;;;;;5.05;2.00;;;;;;;-3.16;100.00;101904.28;5143125;28;20045;-72
2023/02/27 03:56:19;;;;;;;7.30;1.88;;;;;;;-3.26;100.00;101907.28;5151470;28;20034;-72
2023/02/27 03:58:49;;;;;;;;;;;;;;;-3.22;100.00;101908.31;5146908;28;20270;-72
2023/02/27 04:01:20;;;;;;;4.18;1.70;;;;;;;-3.11;100.00;101914.69;5148509;28;20375;-73
2023/02/27 04:04:00;;;;;;;6.32;2.10;;;;;;;-3.08;100.00;101912.25;5131765;28;20042;-72
2023/02/27 04:09:43;;;;;;;4.05;2.65;;;;;;;-3.13;100.00;101912.09;5155544;28;20065;-72
2023/02/27 04:12:34;;;;;;;8.30;2.92;;;;;;;-2.96;100.00;101916.19;5149673;28;20031;-71
2023/02/27 04:15:08;;;;;;;6.05;2.70;;;;;;;-3.01;100.00;101911.72;5154411;28;20039;-71
2023/02/27 04:18:16;;;;;;;6.03;2.58;;;;;;;-3.11;100.00;101917.25;5130440;28;20611;-71
2023/02/27 04:20:54;;;;;;;5.40;2.15;;;;;;;-3.03;100.00;101923.56;5122923;28;20469;-72
2023/02/27 04:23:35;;;;;;;4.10;2.22;;;;;;;-2.93;100.00;101921.44;5151086;28;20062;-71
2023/02/27 04:26:17;;;;;;;4.82;2.15;;;;;;;-2.85;100.00;101927.69;5150948;28;20571;-71
2023/02/27 04:28:58;;;;;;;6.30;2.25;;;;;;;-2.75;100.00;101926.38;5149426;28;20231;-72
2023/02/27 04:31:45;;;;;;;6.53;2.60;;;;;;;-2.85;100.00;101925.16;5151395;28;20019;-72
2023/02/27 04:34:30;;;;;;;3.97;1.90;;;;;;;-3.03;100.00;101934.63;5145515;28;20030;-71
2023/02/27 04:37:12;;;;;;;3.92;1.95;;;;;;;-3.13;100.00;101926.53;5152435;28;20030;-72
2023/02/27 04:40:06;;;;;;;6.45;2.35;;;;;;;-3.28;100.00;101934.47;5156491;28;20030;-72
2023/02/27 04:42:40;;;;;;;8.88;2.10;;;;;;;-3.38;100.00;101940.00;5150728;28;20053;-71
2023/02/27 04:45:15;;;;;;;5.33;2.03;;;;;;;-3.32;100.00;101935.16;5149410;28;20025;-71
2023/02/27 04:47:52;;;;;;;4.90;1.70;;;;;;;-3.26;100.00;101935.41;5144155;28;20035;-73
2023/02/27 04:50:37;;;;;;;4.10;1.85;;;;;;;-3.24;100.00;101940.56;5145367;28;20034;-72
2023/02/27 04:53:18;;;;;;;3.58;1.80;;;;;;;-3.35;100.00;101939.25;5146488;28;20520;-72
2023/02/27 04:55:53;;;;;;;3.72;1.83;;;;;;;-3.34;100.00;101949.53;5144021;28;20039;-72
2023/02/27 04:58:30;;;;;;;3.03;1.60;;;;;;;-3.35;100.00;101945.22;5150709;28;20097;-72
2023/02/27 05:01:10;;;;;;;4.32;1.85;;;;;;;-3.34;100.00;101946.97;5149984;28;20031;-72
2023/02/27 05:03:46;;;;;;;8.68;2.72;;;;;;;-3.25;100.00;101949.03;5147857;28;20627;-72
2023/02/27 05:06:20;;;;;;;5.70;2.50;;;;;;;-3.27;100.00;101945.53;5148358;28;20034;-72
2023/02/27 05:09:00;;;;;;;11.85;2.80;;;;;;;-3.53;100.00;101956.38;5151048;28;20117;-71
2023/02/27 05:11:37;;;;;;;4.63;2.08;;;;;;;-3.49;100.00;101960.78;5151198;28;20085;-72
2023/02/27 05:14:15;;;;;;;4.07;1.92;;;;;;;-3.30;100.00;101961.66;5148945;28;21202;-72
2023/02/27 05:16:53;;;;;;;5.72;2.00;;;;;;;-3.31;100.00;101961.56;5145011;28;20043;-71
2023/02/27 05:19:23;;;;;;;4.75;2.10;;;;;;;-3.44;100.00;101960.19;5142906;28;20093;-71
2023/02/27 05:22:24;;;;;;;5.85;2.17;;;;;;;-3.49;100.00;101958.25;5128681;28;20027;-72
2023/02/27 05:24:58;;;;;;;6.15;2.10;;;;;;;-3.54;100.00;101968.25;5149091;28;20049;-71
2023/02/27 05:27:34;;;;;;;4.75;1.65;;;;;;;-3.51;100.00;101953.06;5151248;28;20033;-72
2023/02/27 05:30:44;;;;;;;4.00;1.83;;;;;;;-3.30;100.00;101964.19;5148572;28;20086;-72
2023/02/27 05:33:24;;;;;;;5.82;1.98;;;;;;;-3.46;100.00;101961.81;5056147;29;20039;-72
2023/02/27 05:36:36;;;;;;;5.45;1.80;;;;;;;-3.33;100.00;101969.16;5132776;28;20054;-71
2023/02/27 05:39:09;;;;;;;8.02;2.25;;;;;;;-3.18;100.00;101971.50;5115309;28;20040;-72
2023/02/27 05:41:46;;;;;;;4.25;2.15;;;;;;;-3.44;100.00;101960.19;5105056;29;20036;-71
2023/02/27 05:44:20;;;;;;;6.38;2.05;;;;;;;-3.50;100.00;101966.72;5135923;28;20575;-72
2023/02/27 05:46:58;;;;;;;5.13;2.00;;;;;;;-3.52;100.00;101971.75;5150842;28;20061;-71
2023/02/27 05:49:34;;;;;;;7.68;1.90;;;;;;;-3.28;100.00;101969.34;5144237;28;20126;-71
2023/02/27 05:52:09;;;;;;;6.55;2.00;;;;;;;-3.34;100.00;101972.53;5149326;28;20065;-72
2023/02/27 05:54:52;;;;;;;;;;;;;;;-3.42;100.00;101983.22;5151225;28;20034;-71
2023/02/27 05:57:28;;;;;;;7.75;2.47;;;;;;;-3.59;100.00;101974.88;5142878;28;19921;-72
2023/02/27 06:00:08;;;;;;;4.35;1.95;;;;;;;-3.52;100.00;101986.22;5149293;28;20034;-72
2023/02/27 06:02:39;;;;;;;6.60;2.10;;;;;;;-3.59;100.00;101992.75;5137742;28;20030;-72
2023/02/27 06:05:12;;;;;;;7.30;2.75;;;;;;;-3.57;100.00;101996.22;5148632;28;20113;-71
2023/02/27 06:07:43;;;;;;;6.35;2.15;;;;;;;-3.34;100.00;101998.06;5150737;28;20369;-72
2023/02/27 06:10:16;;;;;;;4.38;2.20;;;;;;;-3.37;100.00;101990.28;5148097;28;20045;-72
2023/02/27 06:12:47;;;;;;;3.60;1.77;;;;;;;-3.67;100.00;102009.38;5143849;28;20023;-71
2023/02/27 06:15:18;;;;;;;5.40;1.95;;;;;;;-3.67;100.00;101996.63;5134288;28;20137;-72
2023/02/27 06:17:48;;;;;;;4.55;2.00;;;;;;;-3.59;100.00;102010.63;5147982;28;20653;-72
2023/02/27 06:20:19;;;;;;;9.70;3.03;;;;;;;-3.57;100.00;102003.91;5151421;28;20034;-71
2023/02/27 06:22:49;;;;;;;5.55;2.70;;;;;;;-3.42;100.00;102009.66;5145706;28;20109;-72
2023/02/27 06:25:20;;;;;;;7.95;2.55;;;;;;;-3.35;100.00;102011.66;5149276;28;20042;-72
2023/02/27 06:27:51;;;;;;;6.53;2.78;;;;;;;-3.11;100.00;102002.50;5142359;28;20030;-72
2023/02/27 06:30:21;;;;;;;7.32;2.65;;;;;;;-3.08;100.00;102009.38;5145668;28;20033;-72
2023/02/27 06:32:52;;;;;;;4.85;2.22;;;;;;;-3.21;100.00;102010.56;5142233;28;20031;-72
2023/02/27 06:35:23;;;;;;;4.20;2.25;;;;;;;-3.04;100.00;102012.16;5138997;28;20046;-71
2023/02/27 06:37:54;;;;;;;5.03;2.47;;;;;;;-3.04;100.00;102009.59;5138761;28;20117;-72
2023/02/27 06:40:25;;;;;;;5.78;2.30;;;;;;;-2.80;100.00;102015.72;5147141;28;20573;-72
2023/02/27 06:42:55;;;;;;;6.32;2.15;;;;;;;-2.88;100.00;102017.09;5146893;28;20091;-72
2023/02/27 06:45:25;;;;;;;6.10;2.42;;;;;;;-2.86;100.00;102017.16;5126378;28;20026;-72
2023/02/27 06:47:55;;;;;;;7.85;2.70;;;;;;;-2.87;100.00;102023.94;5148531;28;20026;-72
2023/02/27 06:50:27;;;;;;;5.30;2.33;;;;;;;-2.80;100.00;102025.06;5156782;28;20038;-73
2023/02/27 06:52:57;;;;;;;7.30;2.85;;;;;;;-2.76;100.00;102026.94;5142353;28;20092;-70
2023/02/27 06:55:27;;;;;;;12.15;2.63;;;;;;;-2.71;100.00;102020.34;5147006;28;20023;-73
2023/02/27 06:57:58;;;;;;;7.25;2.60;;;;;;;-2.62;100.00;102025.81;5131076;28;20108;-72
2023/02/27 07:00:28;;;;;;;8.60;2.90;;;;;;;-2.45;100.00;102020.56;5148682;28;20084;-72
2023/02/27 07:03:02;;;;;;;10.90;2.78;;;;;;;-2.23;100.00;102018.00;5141218;28;20032;-72
2023/02/27 07:05:32;;;;;;;7.80;2.70;;;;;;;-1.95;100.00;102015.69;5148518;23;20043;-72
2023/02/27 07:08:03;;;;;;;5.82;2.05;;;;;;;-1.94;100.00;102014.88;5119067;28;20517;-74
2023/02/27 07:10:33;;;;;;;5.45;2.45;;;;;;;-2.00;100.00;102024.88;5112786;28;20519;-72
2023/02/27 07:13:03;;;;;;;6.05;2.55;;;;;;;-2.03;100.00;102029.88;5129407;28;20443;-71
2023/02/27 07:15:33;;;;;;;12.95;2.78;;;;;;;-1.87;100.00;102029.66;5138326;28;20027;-73
2023/02/27 07:18:04;;;;;;;10.52;3.22;;;;;;;-1.44;100.00;102015.88;5151447;28;20493;-72
2023/02/27 07:20:35;;;;;;;9.15;2.45;;;;;;;-1.33;100.00;102026.50;5128858;28;20042;-72
2023/02/27 07:23:05;;;;;;;6.18;2.17;;;;;;;-1.04;100.00;102030.97;5149813;28;20026;-73
2023/02/27 07:25:35;;;;;;;6.22;2.90;;;;;;;-1.26;100.00;102025.91;5147458;28;20476;-72
2023/02/27 07:28:05;;;;;;;7.15;2.97;;;;;;;-1.20;100.00;102024.41;5149164;28;20034;-72
2023/02/27 07:30:36;;;;;;;7.05;2.92;;;;;;;-1.18;100.00;102027.94;5153372;28;20034;-74
2023/02/27 07:33:06;;;;;;;7.38;2.78;;;;;;;-1.16;100.00;102026.28;5134015;28;20251;-72
2023/02/27 07:35:37;;;;;;;7.57;3.17;;;;;;;-0.68;100.00;102027.03;5155483;28;20030;-72
2023/02/27 07:38:07;;;;;;;9.98;3.33;;;;;;;-0.86;100.00;102026.44;5128862;28;20035;-73
2023/02/27 07:40:37;;;;;;;9.05;3.38;;;;;;;-0.68;100.00;102027.94;5142373;28;20027;-73
2023/02/27 07:43:08;;;;;;;6.72;3.00;;;;;;;-0.20;100.00;102021.75;5154311;28;20022;-72
2023/02/27 07:45:38;;;;;;;6.70;3.15;;;;;;;0.05;100.00;102026.81;5152539;28;20113;-73
2023/02/27 07:48:09;;;;;;;8.13;3.30;;;;;;;0.51;98.52;102038.47;5135658;28;20026;-72
2023/02/27 07:50:39;;;;;;;5.82;2.78;;;;;;;-0.03;97.56;102042.84;5147554;28;20031;-73
2023/02/27 07:53:12;;;;;;;11.95;2.78;;;;;;;0.44;97.33;102054.56;5152774;28;20486;-73
2023/02/27 07:55:42;;;;;;;7.05;3.13;;;;;;;0.72;95.81;102051.91;5150624;28;20035;-73
2023/02/27 07:58:12;;;;;;;8.15;3.20;;;;;;;0.34;95.34;102059.34;5153896;28;20066;-73
2023/02/27 08:00:43;;;;;;;7.68;3.40;;;;;;;0.23;97.68;102063.34;5151653;28;20038;-73
2023/02/27 08:03:13;;;;;;;6.30;2.78;;;;;;;0.38;98.34;102069.78;5142853;28;20080;-73
2023/02/27 08:05:43;;;;;;;9.23;3.35;;;;;;;0.56;98.09;102067.75;5152391;28;20061;-72
2023/02/27 08:08:14;;;;;;;8.30;3.03;;;;;;;0.62;98.13;102070.50;5150646;28;20030;-72
2023/02/27 08:10:44;;;;;;;6.35;2.80;;;;;;;0.38;96.46;102069.78;5136927;28;20122;-72
2023/02/27 08:13:14;;;;;;;10.27;3.45;;;;;;;0.31;100.00;102078.16;5145841;28;20034;-73
2023/02/27 08:15:45;;;;;;;9.23;3.25;;;;;;;0.69;99.72;102076.69;5153757;28;20034;-73
2023/02/27 08:18:15;;;;;;;7.35;2.83;;;;;;;0.64;99.51;102076.56;5150405;28;20061;-73
2023/02/27 08:20:45;;;;;;;7.57;3.53;;;;;;;0.38;100.00;102076.66;5145602;28;20061;-72
2023/02/27 08:23:16;;;;;;;7.47;3.10;;;;;;;0.40;99.63;102082.69;5144751;28;20027;-74
2023/02/27 08:25:46;;;;;;;9.38;3.17;;;;;;;0.46;100.00;102078.59;5149021;28;20030;-72
2023/02/27 08:28:17;;;;;;;7.45;2.92;;;;;;;0.42;100.00;102086.19;5149817;28;20147;-73
2023/02/27 08:30:47;;;;;;;6.03;2.70;;;;;;;0.72;100.00;102087.06;5153648;28;20049;-72
2023/02/27 08:33:18;;;;;;;9.38;3.47;;;;;;;0.59;100.00;102090.97;5132265;28;20057;-72
2023/02/27 08:35:48;;;;;;;9.02;3.20;;;;;;;0.53;100.00;102100.22;5148631;28;20033;-73
2023/02/27 08:38:19;;;;;;;5.90;2.92;;;;;;;0.72;100.00;102092.22;5145794;28;20614;-72
2023/02/27 08:40:53;;;;;;;5.72;2.55;;;;;;;0.38;100.00;102086.94;5132074;28;20105;-73
2023/02/27 08:43:24;;;;;;;5.78;2.80;;;;;;;0.82;100.00;102084.78;5134364;28;20057;-72
2023/02/27 08:45:54;;;;;;;7.22;2.63;;;;;;;0.47;100.00;102082.94;5151028;28;20177;-72
2023/02/27 08:48:24;;;;;;;6.07;2.38;;;;;;;0.75;99.59;102089.72;5150796;28;20473;-72
2023/02/27 08:50:54;;;;;;;6.30;2.50;;;;;;;0.82;99.53;102073.59;5153055;28;20110;-72
2023/02/27 08:53:25;;;;;;;9.60;3.08;;;;;;;1.08;100.00;102073.47;5143570;28;20042;-72
2023/02/27 08:55:55;;;;;;;5.93;3.20;;;;;;;0.90;98.64;102072.13;5147297;28;20035;-73
2023/02/27 08:58:27;;;;;;;5.28;2.92;;;;;;;0.93;98.80;102085.06;5148389;28;20054;-73
2023/02/27 09:00:57;;;;;;;6.95;2.67;;;;;;;0.86;100.00;102093.47;5151750;28;20078;-72
2023/02/27 09:03:27;;;;;;;6.97;2.60;;;;;;;1.20;100.00;102084.09;5138874;28;20054;-72
2023/02/27 09:05:58;;;;;;;5.32;2.47;;;;;;;1.50;98.62;102079.75;5154102;28;20034;-74
2023/02/27 09:08:29;;;;;;;4.57;2.53;;;;;;;1.14;99.22;102083.97;5150568;28;20064;-73
2023/02/27 09:10:59;;;;;;;8.60;3.08;;;;;;;1.26;99.64;102079.09;5150209;28;20399;-73
2023/02/27 09:13:30;;;;;;;6.90;2.63;;;;;;;1.66;96.57;102079.28;5133423;28;20032;-73
2023/02/27 09:16:00;;;;;;;6.97;2.30;;;;;;;1.98;96.10;102074.03;5150739;28;20061;-72
2023/02/27 09:18:30;;;;;;;7.95;2.97;;;;;;;1.67;94.08;102083.59;5150890;28;20480;-72
2023/02/27 09:21:02;;;;;;;6.20;2.67;;;;;;;2.21;94.56;102082.28;5150779;28;20500;-75
2023/02/27 09:23:32;;;;;;;5.82;2.30;;;;;;;2.29;90.83;102078.16;5149518;28;20030;-72
2023/02/27 09:26:04;;;;;;;9.77;2.60;;;;;;;2.72;91.02;102070.47;5149867;28;20420;-74
2023/02/27 09:28:36;;;;;;;4.63;2.40;;;;;;;2.94;90.02;102068.34;5150890;28;20125;-73
2023/02/27 09:31:07;;;;;;;6.47;2.70;;;;;;;2.83;87.70;102069.84;5148215;28;20027;-73
2023/02/27 09:33:37;;;;;;;6.03;2.42;;;;;;;2.83;87.88;102066.41;5141486;28;20165;-72
2023/02/27 09:36:08;;;;;;;5.90;2.55;;;;;;;2.53;90.34;102076.97;5152398;28;20057;-73
2023/02/27 09:38:38;;;;;;;5.70;2.33;;;;;;;2.77;88.46;102069.75;5153238;28;20058;-73
2023/02/27 09:41:30;;;;;;;7.65;2.60;;;;;;;2.66;91.28;102070.38;5148776;28;20023;-73
2023/02/27 09:44:02;;;;;;;8.38;2.38;;;;;;;2.79;89.90;102074.91;5152148;28;20089;-74
2023/02/27 09:46:32;;;;;;;6.82;2.83;;;;;;;2.97;87.96;102073.56;5150561;28;20031;-72
2023/02/27 09:49:03;;;;;;;8.82;2.60;;;;;;;3.12;88.98;102062.63;5149186;28;20073;-72
2023/02/27 09:51:34;;;;;;;6.32;2.50;;;;;;;2.82;90.50;102062.94;5131890;28;20022;-73
2023/02/27 09:54:04;;;;;;;6.22;2.38;;;;;;;2.75;91.79;102057.63;5148539;28;20030;-72
2023/02/27 09:56:41;;;;;;;6.15;2.22;;;;;;;3.23;88.57;102055.97;5150677;28;20136;-73
2023/02/27 09:59:30;;;;;;;6.45;2.60;;;;;;;3.24;88.72;102047.38;5130843;28;20022;-72
2023/02/27 10:02:21;;;;;;;9.80;2.38;;;;;;;3.58;87.55;102044.50;5143240;28;20114;-72
2023/02/27 10:05:31;;;;;;;4.93;2.30;;;;;;;3.53;88.03;102056.50;5143042;28;20034;-72
2023/02/27 10:08:37;;;;;;;7.68;3.20;;;;;;;3.23;89.49;102061.13;5127296;28;20034;-73
2023/02/27 10:11:12;;;;;;;5.78;2.25;;;;;;;3.58;91.16;102053.16;5143459;28;20117;-74
2023/02/27 10:13:57;;;;;;;6.97;2.90;;;;;;;3.71;88.96;102047.31;5147562;28;20496;-74
2023/02/27 10:16:31;;;;;;;8.23;2.40;;;;;;;3.63;89.14;102049.75;5147553;28;20095;-72
2023/02/27 10:19:10;;;;;;;5.97;2.50;;;;;;;3.86;85.10;102056.19;5147362;28;20035;-72
2023/02/27 10:21:48;;;;;;;7.45;2.10;;;;;;;3.85;86.09;102056.16;5127578;28;20553;-73
2023/02/27 10:24:18;;;;;;;4.57;1.73;;;;;;;3.58;85.91;102056.59;5143339;28;20066;-73
2023/02/27 10:26:51;;;;;;;7.43;1.77;;;;;;;3.74;86.38;102061.16;5147867;28;20471;-72
2023/02/27 10:29:35;;;;;;;4.20;1.60;;;;;;;3.66;85.75;102060.19;5138875;28;20485;-72
2023/02/27 10:32:10;;;;;;;3.03;1.40;;;;;;;3.99;84.32;102064.97;5142552;28;20033;-73
2023/02/27 10:34:42;;;;;;;4.90;1.23;;;;;;;4.12;84.23;102065.16;5148475;28;20023;-73
2023/02/27 10:37:15;;;;;;;3.45;1.50;;;;;;;4.09;84.23;102061.69;5144066;28;20038;-71
2023/02/27 10:39:48;;;;;;;4.40;1.10;;;;;;;3.97;83.26;102062.34;5141954;28;20096;-73
2023/02/27 10:42:21;;;;;;;7.90;1.77;;;;;;;4.09;83.28;102064.28;5143751;28;20038;-73
2023/02/27 10:44:52;;;;;;;3.42;1.02;;;;;;;4.08;82.65;102070.28;5148134;28;20030;-73
2023/02/27 10:47:24;;;;;;;5.28;1.10;;;;;;;3.73;83.68;102072.34;5125822;28;20034;-74
2023/02/27 10:49:55;;;;;;;3.13;1.02;;;;;;;3.77;83.15;102073.28;5146640;28;20196;-75
2023/02/27 10:52:25;;;;;;;2.65;1.17;;;;;;;3.76;83.52;102077.56;5130699;28;20106;-73
2023/02/27 10:55:17;;;;;;;4.55;1.20;;;;;;;3.88;82.18;102070.00;5148933;28;20022;-72
2023/02/27 10:57:48;;;;;;;5.72;1.27;;;;;;;4.01;84.34;102071.03;5145559;28;20473;-72
2023/02/27 11:00:27;;;;;;;7.03;1.40;;;;;;;4.13;84.35;102069.50;5144480;28;20038;-75
2023/02/27 11:02:57;;;;;;;3.20;1.20;;;;;;;4.26;82.55;102068.81;5138004;28;20401;-75
2023/02/27 11:05:32;;;;;;;3.83;1.33;;;;;;;4.22;81.00;102063.59;5151949;28;20033;-73
2023/02/27 11:08:19;;;;;;;3.73;1.17;;;;;;;4.25;81.27;102059.31;5159515;28;20514;-75
2023/02/27 11:11:03;;;;;;;4.38;1.33;;;;;;;4.62;81.86;102056.34;5153261;28;20274;-75
2023/02/27 11:13:36;;;;;;;3.90;1.30;;;;;;;4.34;80.58;102059.47;5136670;28;20026;-72
2023/02/27 11:16:16;;;;;;;4.45;1.20;;;;;;;4.51;81.10;102047.59;5155620;28;20034;-73
2023/02/27 11:18:49;;;;;;;5.93;1.40;;;;;;;4.67;80.70;102051.25;5143028;28;20081;-75
2023/02/27 11:21:25;;;;;;;4.18;1.17;;;;;;;4.23;80.29;102047.22;5156107;28;20037;-73
2023/02/27 11:24:16;;;;;;;1.75;1.00;;;;;;;3.90;82.38;102051.91;5142619;28;20030;-74
2023/02/27 11:26:58;;;;;;;3.72;1.00;;;;;;;3.61;81.40;102054.03;5149419;28;20444;-74
2023/02/27 11:29:28;;;;;;;2.92;1.17;;;;;;;3.57;82.95;102056.53;5155213;28;20030;-74
2023/02/27 11:32:01;;;;;;;2.85;1.10;;;;;;;3.51;84.18;102055.59;5154607;28;20377;-75
2023/02/27 11:34:35;;;;;;;3.13;1.30;;;;;;;3.81;85.78;102054.38;5135754;28;20034;-73
2023/02/27 11:37:20;;;;;;;3.70;1.30;;;;;;;3.81;85.29;102052.63;5158486;28;20050;-73
2023/02/27 11:40:04;;;;;;;4.30;1.23;;;;;;;3.89;83.10;102051.03;5139382;28;20041;-72
2023/02/27 11:42:40;;;;;;;5.15;1.30;;;;;;;4.03;83.45;102052.13;5121609;28;20141;-73
2023/02/27 11:45:19;;;;;;;4.97;1.35;;;;;;;4.47;82.00;102053.56;5138776;28;20025;-74
2023/02/27 11:47:53;;;;;;;2.75;1.30;;;;;;;4.37;80.34;102045.69;5153700;28;20094;-74
2023/02/27 11:50:42;;;;;;;5.43;1.50;;;;;;;4.38;82.85;102045.72;5138050;28;20369;-72
2023/02/27 11:53:18;;;;;;;3.58;1.48;;;;;;;4.18;81.83;102046.28;5140087;28;20053;-73
2023/02/27 11:55:54;;;;;;;3.45;1.10;;;;;;;4.14;81.00;102049.69;5148412;28;20531;-74
2023/02/27 11:58:26;;;;;;;;;;;;;;;4.13;81.01;102048.81;5156786;28;20507;-73
2023/02/27 12:01:07;;;;;;;2.92;1.00;;;;;;;4.10;80.58;102047.91;5153823;28;19964;-76
2023/02/27 12:04:01;;;;;;;5.53;1.25;;;;;;;3.96;81.84;102045.09;5151048;28;20050;-73